sensor_id;sensor_type;location;lat;lon;timestamp;temperature;humidity
46590;DHT22;32313;48.722;9.362;2023-09-19T00:01:33;15.80;99.90
46590;DHT22;32313;48.722;9.362;2023-09-19T00:03:59;15.70;99.90
46590;DHT22;32313;48.722;9.362;2023-09-19T00:06:28;15.70;99.90
46590;DHT22;32313;48.722;9.362;2023-09-19T00:08:57;15.70;99.90
46590;DHT22;32313;48.722;9.362;2023-09-19T00:11:24;15.70;99.90
46590;DHT22;32313;48.722;9.362;2023-09-19T00:13:51;15.70;99.90
46590;DHT22;32313;48.722;9.362;2023-09-19T00:16:17;15.60;99.90
46590;DHT22;32313;48.722;9.362;2023-09-19T00:18:45;15.70;99.90
46590;DHT22;32313;48.722;9.362;2023-09-19T00:21:11;15.60;99.90
46590;DHT22;32313;48.722;9.362;2023-09-19T00:23:37;15.60;99.90
46590;DHT22;32313;48.722;9.362;2023-09-19T00:26:03;15.50;99.90
46590;DHT22;32313;48.722;9.362;2023-09-19T00:28:29;15.60;99.90
46590;DHT22;32313;48.722;9.362;2023-09-19T00:31:01;15.50;99.90
46590;DHT22;32313;48.722;9.362;2023-09-19T00:33:27;15.50;99.90
46590;DHT22;32313;48.722;9.362;2023-09-19T00:35:56;15.50;99.90
46590;DHT22;32313;48.722;9.362;2023-09-19T00:38:23;15.40;99.90
46590;DHT22;32313;48.722;9.362;2023-09-19T00:40:53;15.50;99.90
46590;DHT22;32313;48.722;9.362;2023-09-19T00:43:19;15.50;99.90
46590;DHT22;32313;48.722;9.362;2023-09-19T00:45:48;15.50;99.90
46590;DHT22;32313;48.722;9.362;2023-09-19T00:48:15;15.50;99.90
46590;DHT22;32313;48.722;9.362;2023-09-19T00:50:42;15.50;99.90
46590;DHT22;32313;48.722;9.362;2023-09-19T00:53:09;15.50;99.90
46590;DHT22;32313;48.722;9.362;2023-09-19T00:55:37;15.50;99.90
46590;DHT22;32313;48.722;9.362;2023-09-19T00:58:03;15.50;99.90
46590;DHT22;32313;48.722;9.362;2023-09-19T01:00:32;15.40;99.90
46590;DHT22;32313;48.722;9.362;2023-09-19T01:03:00;15.40;99.90
46590;DHT22;32313;48.722;9.362;2023-09-19T01:05:29;15.40;99.90
46590;DHT22;32313;48.722;9.362;2023-09-19T01:07:57;15.40;99.90
46590;DHT22;32313;48.722;9.362;2023-09-19T01:10:24;15.40;99.90
46590;DHT22;32313;48.722;9.362;2023-09-19T01:13:19;15.40;99.90
46590;DHT22;32313;48.722;9.362;2023-09-19T01:18:43;15.60;99.90
46590;DHT22;32313;48.722;9.362;2023-09-19T01:21:23;15.60;99.90
46590;DHT22;32313;48.722;9.362;2023-09-19T01:24:16;15.70;99.90
46590;DHT22;32313;48.722;9.362;2023-09-19T01:29:42;15.60;99.90
46590;DHT22;32313;48.722;9.362;2023-09-19T01:32:11;15.60;99.90
46590;DHT22;32313;48.722;9.362;2023-09-19T01:34:56;15.70;99.90
46590;DHT22;32313;48.722;9.362;2023-09-19T01:37:24;15.70;99.90
46590;DHT22;32313;48.722;9.362;2023-09-19T01:40:11;15.80;99.90
46590;DHT22;32313;48.722;9.362;2023-09-19T01:42:58;15.80;99.90
46590;DHT22;32313;48.722;9.362;2023-09-19T01:53:45;15.90;99.90
46590;DHT22;32313;48.722;9.362;2023-09-19T01:56:22;15.90;99.90
46590;DHT22;32313;48.722;9.362;2023-09-19T01:58:53;16.00;99.90
46590;DHT22;32313;48.722;9.362;2023-09-19T02:01:22;16.10;99.90
46590;DHT22;32313;48.722;9.362;2023-09-19T02:03:50;16.10;99.90
46590;DHT22;32313;48.722;9.362;2023-09-19T02:06:17;16.10;99.90
46590;DHT22;32313;48.722;9.362;2023-09-19T02:08:44;16.10;99.90
46590;DHT22;32313;48.722;9.362;2023-09-19T02:11:11;16.10;99.90
46590;DHT22;32313;48.722;9.362;2023-09-19T02:13:37;16.10;99.90
46590;DHT22;32313;48.722;9.362;2023-09-19T02:16:03;16.10;99.90
46590;DHT22;32313;48.722;9.362;2023-09-19T02:18:30;16.10;99.90
46590;DHT22;32313;48.722;9.362;2023-09-19T02:20:56;16.10;99.90
46590;DHT22;32313;48.722;9.362;2023-09-19T02:23:24;16.10;99.90
46590;DHT22;32313;48.722;9.362;2023-09-19T02:25:54;16.10;99.90
46590;DHT22;32313;48.722;9.362;2023-09-19T02:28:20;16.00;99.90
46590;DHT22;32313;48.722;9.362;2023-09-19T02:30:48;15.90;99.90
46590;DHT22;32313;48.722;9.362;2023-09-19T02:33:15;15.90;99.90
46590;DHT22;32313;48.722;9.362;2023-09-19T02:35:42;15.90;99.90
46590;DHT22;32313;48.722;9.362;2023-09-19T02:38:08;15.90;99.90
46590;DHT22;32313;48.722;9.362;2023-09-19T02:40:37;15.80;99.90
46590;DHT22;32313;48.722;9.362;2023-09-19T02:43:03;15.80;99.90
46590;DHT22;32313;48.722;9.362;2023-09-19T02:45:29;15.70;99.90
46590;DHT22;32313;48.722;9.362;2023-09-19T02:47:56;15.70;99.90
46590;DHT22;32313;48.722;9.362;2023-09-19T02:50:22;15.60;99.90
46590;DHT22;32313;48.722;9.362;2023-09-19T02:52:49;15.50;99.90
46590;DHT22;32313;48.722;9.362;2023-09-19T02:55:19;15.40;99.90
46590;DHT22;32313;48.722;9.362;2023-09-19T02:57:50;15.30;99.90
46590;DHT22;32313;48.722;9.362;2023-09-19T03:00:17;15.10;99.90
46590;DHT22;32313;48.722;9.362;2023-09-19T03:02:50;15.00;99.90
46590;DHT22;32313;48.722;9.362;2023-09-19T03:05:17;14.90;99.90
46590;DHT22;32313;48.722;9.362;2023-09-19T03:07:43;14.70;99.90
46590;DHT22;32313;48.722;9.362;2023-09-19T03:10:11;14.70;99.90
46590;DHT22;32313;48.722;9.362;2023-09-19T03:12:37;14.70;99.90
46590;DHT22;32313;48.722;9.362;2023-09-19T03:15:04;14.80;99.90
46590;DHT22;32313;48.722;9.362;2023-09-19T03:17:31;14.90;99.90
46590;DHT22;32313;48.722;9.362;2023-09-19T03:19:58;15.10;99.90
46590;DHT22;32313;48.722;9.362;2023-09-19T03:22:25;15.20;99.90
46590;DHT22;32313;48.722;9.362;2023-09-19T03:24:52;15.20;99.90
46590;DHT22;32313;48.722;9.362;2023-09-19T03:27:18;15.30;99.90
46590;DHT22;32313;48.722;9.362;2023-09-19T03:29:44;15.30;99.90
46590;DHT22;32313;48.722;9.362;2023-09-19T03:32:10;15.40;99.90
46590;DHT22;32313;48.722;9.362;2023-09-19T03:34:37;15.40;99.90
46590;DHT22;32313;48.722;9.362;2023-09-19T03:37:07;15.40;99.90
46590;DHT22;32313;48.722;9.362;2023-09-19T03:39:34;15.40;99.90
46590;DHT22;32313;48.722;9.362;2023-09-19T03:42:01;15.50;99.90
46590;DHT22;32313;48.722;9.362;2023-09-19T03:44:26;15.50;99.90
46590;DHT22;32313;48.722;9.362;2023-09-19T03:46:52;15.50;99.90
46590;DHT22;32313;48.722;9.362;2023-09-19T03:49:18;15.60;99.90
46590;DHT22;32313;48.722;9.362;2023-09-19T03:51:44;15.60;99.90
46590;DHT22;32313;48.722;9.362;2023-09-19T03:54:10;15.60;99.90
46590;DHT22;32313;48.722;9.362;2023-09-19T03:56:36;15.50;99.90
46590;DHT22;32313;48.722;9.362;2023-09-19T03:59:01;15.50;99.90
46590;DHT22;32313;48.722;9.362;2023-09-19T04:01:28;15.40;99.90
46590;DHT22;32313;48.722;9.362;2023-09-19T04:03:56;15.40;99.90
46590;DHT22;32313;48.722;9.362;2023-09-19T04:06:23;15.40;99.90
46590;DHT22;32313;48.722;9.362;2023-09-19T04:08:49;15.40;99.90
46590;DHT22;32313;48.722;9.362;2023-09-19T04:11:14;15.30;99.90
46590;DHT22;32313;48.722;9.362;2023-09-19T04:13:40;15.30;99.90
46590;DHT22;32313;48.722;9.362;2023-09-19T04:16:06;15.30;99.90
46590;DHT22;32313;48.722;9.362;2023-09-19T04:18:35;15.40;99.90
46590;DHT22;32313;48.722;9.362;2023-09-19T04:21:04;15.40;99.90
46590;DHT22;32313;48.722;9.362;2023-09-19T04:23:32;15.30;99.90
46590;DHT22;32313;48.722;9.362;2023-09-19T04:25:58;15.30;99.90
46590;DHT22;32313;48.722;9.362;2023-09-19T04:28:24;15.30;99.90
46590;DHT22;32313;48.722;9.362;2023-09-19T04:30:50;15.30;99.90
46590;DHT22;32313;48.722;9.362;2023-09-19T04:33:15;15.20;99.90
46590;DHT22;32313;48.722;9.362;2023-09-19T04:35:41;15.20;99.90
46590;DHT22;32313;48.722;9.362;2023-09-19T04:38:08;15.10;99.90
46590;DHT22;32313;48.722;9.362;2023-09-19T04:40:34;14.90;99.90
46590;DHT22;32313;48.722;9.362;2023-09-19T04:43:00;14.80;99.90
46590;DHT22;32313;48.722;9.362;2023-09-19T04:45:27;14.80;99.90
46590;DHT22;32313;48.722;9.362;2023-09-19T04:47:53;14.80;99.90
46590;DHT22;32313;48.722;9.362;2023-09-19T04:50:19;14.80;99.90
46590;DHT22;32313;48.722;9.362;2023-09-19T04:52:49;14.90;99.90
46590;DHT22;32313;48.722;9.362;2023-09-19T04:55:17;14.90;99.90
46590;DHT22;32313;48.722;9.362;2023-09-19T04:57:45;15.00;99.90
46590;DHT22;32313;48.722;9.362;2023-09-19T05:00:15;15.10;99.90
46590;DHT22;32313;48.722;9.362;2023-09-19T05:02:42;15.20;99.90
46590;DHT22;32313;48.722;9.362;2023-09-19T05:05:09;15.30;99.90
46590;DHT22;32313;48.722;9.362;2023-09-19T05:07:42;15.40;99.90
46590;DHT22;32313;48.722;9.362;2023-09-19T05:10:09;15.40;99.90
46590;DHT22;32313;48.722;9.362;2023-09-19T05:12:40;15.40;99.90
46590;DHT22;32313;48.722;9.362;2023-09-19T05:15:07;15.40;99.90
46590;DHT22;32313;48.722;9.362;2023-09-19T05:17:33;15.50;99.90
46590;DHT22;32313;48.722;9.362;2023-09-19T05:20:03;15.50;99.90
46590;DHT22;32313;48.722;9.362;2023-09-19T05:23:12;15.60;99.90
46590;DHT22;32313;48.722;9.362;2023-09-19T05:25:40;15.60;99.90
46590;DHT22;32313;48.722;9.362;2023-09-19T05:28:09;15.70;99.90
46590;DHT22;32313;48.722;9.362;2023-09-19T05:30:38;15.70;99.90
46590;DHT22;32313;48.722;9.362;2023-09-19T05:33:04;15.70;99.90
46590;DHT22;32313;48.722;9.362;2023-09-19T05:35:31;15.60;99.90
46590;DHT22;32313;48.722;9.362;2023-09-19T05:37:57;15.60;99.90
46590;DHT22;32313;48.722;9.362;2023-09-19T05:40:24;15.50;99.90
46590;DHT22;32313;48.722;9.362;2023-09-19T05:42:50;15.40;99.90
46590;DHT22;32313;48.722;9.362;2023-09-19T05:45:19;15.40;99.90
46590;DHT22;32313;48.722;9.362;2023-09-19T05:47:51;15.30;99.90
46590;DHT22;32313;48.722;9.362;2023-09-19T05:50:21;15.20;99.90
46590;DHT22;32313;48.722;9.362;2023-09-19T05:52:54;15.20;99.90
46590;DHT22;32313;48.722;9.362;2023-09-19T05:55:21;15.20;99.90
46590;DHT22;32313;48.722;9.362;2023-09-19T05:57:53;15.10;99.90
46590;DHT22;32313;48.722;9.362;2023-09-19T06:00:20;15.10;99.90
46590;DHT22;32313;48.722;9.362;2023-09-19T06:02:50;15.10;99.90
46590;DHT22;32313;48.722;9.362;2023-09-19T06:05:16;15.10;99.90
46590;DHT22;32313;48.722;9.362;2023-09-19T06:07:42;15.20;99.90
46590;DHT22;32313;48.722;9.362;2023-09-19T06:10:07;15.30;99.90
46590;DHT22;32313;48.722;9.362;2023-09-19T06:12:42;15.40;99.90
46590;DHT22;32313;48.722;9.362;2023-09-19T06:15:12;15.50;99.90
46590;DHT22;32313;48.722;9.362;2023-09-19T06:17:48;15.60;99.90
46590;DHT22;32313;48.722;9.362;2023-09-19T06:20:15;15.70;99.90
46590;DHT22;32313;48.722;9.362;2023-09-19T06:22:43;15.70;99.90
46590;DHT22;32313;48.722;9.362;2023-09-19T06:25:13;15.60;99.90
46590;DHT22;32313;48.722;9.362;2023-09-19T06:27:53;15.60;99.90
46590;DHT22;32313;48.722;9.362;2023-09-19T06:30:23;15.40;99.90
46590;DHT22;32313;48.722;9.362;2023-09-19T06:32:55;15.30;99.90
46590;DHT22;32313;48.722;9.362;2023-09-19T06:35:21;15.20;99.90
46590;DHT22;32313;48.722;9.362;2023-09-19T06:37:47;15.00;99.90
46590;DHT22;32313;48.722;9.362;2023-09-19T06:40:14;15.00;99.90
46590;DHT22;32313;48.722;9.362;2023-09-19T06:42:52;15.00;99.90
46590;DHT22;32313;48.722;9.362;2023-09-19T06:45:21;15.00;99.90
46590;DHT22;32313;48.722;9.362;2023-09-19T06:47:49;15.00;99.90
46590;DHT22;32313;48.722;9.362;2023-09-19T06:50:16;15.00;99.90
46590;DHT22;32313;48.722;9.362;2023-09-19T06:52:45;15.00;99.90
46590;DHT22;32313;48.722;9.362;2023-09-19T06:55:11;15.00;99.90
46590;DHT22;32313;48.722;9.362;2023-09-19T06:57:42;15.10;99.90
46590;DHT22;32313;48.722;9.362;2023-09-19T07:00:09;15.10;99.90
46590;DHT22;32313;48.722;9.362;2023-09-19T07:02:44;15.20;99.90
46590;DHT22;32313;48.722;9.362;2023-09-19T07:05:11;15.20;99.90
46590;DHT22;32313;48.722;9.362;2023-09-19T07:07:37;15.40;99.90
46590;DHT22;32313;48.722;9.362;2023-09-19T07:10:03;15.60;99.90
46590;DHT22;32313;48.722;9.362;2023-09-19T07:12:35;15.70;99.90
46590;DHT22;32313;48.722;9.362;2023-09-19T07:15:02;15.90;99.90
46590;DHT22;32313;48.722;9.362;2023-09-19T07:17:27;16.10;99.90
46590;DHT22;32313;48.722;9.362;2023-09-19T07:19:55;16.40;99.90
46590;DHT22;32313;48.722;9.362;2023-09-19T07:22:20;16.80;99.90
46590;DHT22;32313;48.722;9.362;2023-09-19T07:24:46;17.60;99.90
46590;DHT22;32313;48.722;9.362;2023-09-19T07:27:14;17.80;99.90
46590;DHT22;32313;48.722;9.362;2023-09-19T07:29:40;17.80;99.90
46590;DHT22;32313;48.722;9.362;2023-09-19T07:32:05;17.60;99.90
46590;DHT22;32313;48.722;9.362;2023-09-19T07:34:32;17.60;99.90
46590;DHT22;32313;48.722;9.362;2023-09-19T07:36:57;17.40;99.90
46590;DHT22;32313;48.722;9.362;2023-09-19T07:39:23;17.30;99.90
46590;DHT22;32313;48.722;9.362;2023-09-19T07:41:49;17.10;99.90
46590;DHT22;32313;48.722;9.362;2023-09-19T07:44:15;17.10;99.90
46590;DHT22;32313;48.722;9.362;2023-09-19T07:46:40;17.10;99.90
46590;DHT22;32313;48.722;9.362;2023-09-19T07:49:06;17.10;99.90
46590;DHT22;32313;48.722;9.362;2023-09-19T07:51:32;17.30;99.90
46590;DHT22;32313;48.722;9.362;2023-09-19T07:53:58;17.70;99.90
46590;DHT22;32313;48.722;9.362;2023-09-19T07:56:24;18.00;99.90
46590;DHT22;32313;48.722;9.362;2023-09-19T07:58:51;18.20;99.90
46590;DHT22;32313;48.722;9.362;2023-09-19T08:01:17;18.50;99.90
46590;DHT22;32313;48.722;9.362;2023-09-19T08:03:43;19.10;99.90
46590;DHT22;32313;48.722;9.362;2023-09-19T08:06:09;19.70;99.90
46590;DHT22;32313;48.722;9.362;2023-09-19T08:08:37;19.90;99.90
46590;DHT22;32313;48.722;9.362;2023-09-19T08:11:03;19.90;99.90
46590;DHT22;32313;48.722;9.362;2023-09-19T08:13:41;19.90;99.90
46590;DHT22;32313;48.722;9.362;2023-09-19T08:16:12;19.90;99.90
46590;DHT22;32313;48.722;9.362;2023-09-19T08:18:40;20.00;99.90
46590;DHT22;32313;48.722;9.362;2023-09-19T08:21:06;20.50;99.90
46590;DHT22;32313;48.722;9.362;2023-09-19T08:23:37;20.80;99.90
46590;DHT22;32313;48.722;9.362;2023-09-19T08:26:04;21.30;99.90
46590;DHT22;32313;48.722;9.362;2023-09-19T08:28:32;21.60;99.90
46590;DHT22;32313;48.722;9.362;2023-09-19T08:31:03;21.90;99.90
46590;DHT22;32313;48.722;9.362;2023-09-19T08:33:32;22.40;99.90
46590;DHT22;32313;48.722;9.362;2023-09-19T08:35:57;22.70;99.90
46590;DHT22;32313;48.722;9.362;2023-09-19T08:38:23;23.00;99.90
46590;DHT22;32313;48.722;9.362;2023-09-19T08:40:49;23.50;99.90
46590;DHT22;32313;48.722;9.362;2023-09-19T08:43:16;23.00;99.90
46590;DHT22;32313;48.722;9.362;2023-09-19T08:45:41;22.70;99.90
46590;DHT22;32313;48.722;9.362;2023-09-19T08:48:23;23.00;99.90
46590;DHT22;32313;48.722;9.362;2023-09-19T08:51:07;22.40;99.90
46590;DHT22;32313;48.722;9.362;2023-09-19T08:53:44;22.00;99.90
46590;DHT22;32313;48.722;9.362;2023-09-19T08:56:17;21.40;99.90
46590;DHT22;32313;48.722;9.362;2023-09-19T08:58:46;20.90;99.90
46590;DHT22;32313;48.722;9.362;2023-09-19T09:01:16;20.70;99.90
46590;DHT22;32313;48.722;9.362;2023-09-19T09:03:48;20.40;99.90
46590;DHT22;32313;48.722;9.362;2023-09-19T09:06:15;20.10;99.90
46590;DHT22;32313;48.722;9.362;2023-09-19T09:08:43;19.70;99.90
46590;DHT22;32313;48.722;9.362;2023-09-19T09:11:08;19.40;99.90
46590;DHT22;32313;48.722;9.362;2023-09-19T09:13:36;19.20;99.90
46590;DHT22;32313;48.722;9.362;2023-09-19T09:16:03;19.10;99.90
46590;DHT22;32313;48.722;9.362;2023-09-19T09:18:29;19.00;99.90
46590;DHT22;32313;48.722;9.362;2023-09-19T09:20:57;19.00;99.90
46590;DHT22;32313;48.722;9.362;2023-09-19T09:23:23;18.90;99.90
46590;DHT22;32313;48.722;9.362;2023-09-19T09:25:55;18.90;99.90
46590;DHT22;32313;48.722;9.362;2023-09-19T09:28:30;18.90;99.90
46590;DHT22;32313;48.722;9.362;2023-09-19T09:30:57;19.00;99.90
46590;DHT22;32313;48.722;9.362;2023-09-19T09:33:34;19.40;99.90
46590;DHT22;32313;48.722;9.362;2023-09-19T09:36:02;19.90;99.90
46590;DHT22;32313;48.722;9.362;2023-09-19T09:38:45;20.30;99.90
46590;DHT22;32313;48.722;9.362;2023-09-19T09:41:15;20.70;99.90
46590;DHT22;32313;48.722;9.362;2023-09-19T09:43:52;21.20;99.90
46590;DHT22;32313;48.722;9.362;2023-09-19T09:46:19;21.10;99.90
46590;DHT22;32313;48.722;9.362;2023-09-19T09:48:55;20.60;99.90
46590;DHT22;32313;48.722;9.362;2023-09-19T09:51:40;20.60;99.90
46590;DHT22;32313;48.722;9.362;2023-09-19T09:54:16;20.70;99.90
46590;DHT22;32313;48.722;9.362;2023-09-19T09:56:56;20.60;99.90
46590;DHT22;32313;48.722;9.362;2023-09-19T10:00:10;20.70;99.90
46590;DHT22;32313;48.722;9.362;2023-09-19T10:02:39;21.40;99.90
46590;DHT22;32313;48.722;9.362;2023-09-19T10:05:13;21.00;99.90
46590;DHT22;32313;48.722;9.362;2023-09-19T10:07:54;20.50;99.90
46590;DHT22;32313;48.722;9.362;2023-09-19T10:10:33;20.30;99.90
46590;DHT22;32313;48.722;9.362;2023-09-19T10:13:06;20.20;99.90
46590;DHT22;32313;48.722;9.362;2023-09-19T10:15:34;20.10;99.90
46590;DHT22;32313;48.722;9.362;2023-09-19T10:18:04;20.00;99.90
46590;DHT22;32313;48.722;9.362;2023-09-19T10:20:30;20.00;99.90
46590;DHT22;32313;48.722;9.362;2023-09-19T10:23:05;20.20;99.90
46590;DHT22;32313;48.722;9.362;2023-09-19T10:25:37;20.80;99.90
46590;DHT22;32313;48.722;9.362;2023-09-19T10:28:10;21.40;99.90
46590;DHT22;32313;48.722;9.362;2023-09-19T10:30:51;21.80;99.90
46590;DHT22;32313;48.722;9.362;2023-09-19T10:33:24;21.90;99.90
46590;DHT22;32313;48.722;9.362;2023-09-19T10:35:59;21.70;99.90
46590;DHT22;32313;48.722;9.362;2023-09-19T10:38:26;21.40;99.90
46590;DHT22;32313;48.722;9.362;2023-09-19T10:40:55;21.10;99.90
46590;DHT22;32313;48.722;9.362;2023-09-19T10:43:26;21.30;99.90
46590;DHT22;32313;48.722;9.362;2023-09-19T10:46:00;22.20;99.90
46590;DHT22;32313;48.722;9.362;2023-09-19T10:48:26;22.70;99.90
46590;DHT22;32313;48.722;9.362;2023-09-19T10:53:40;23.80;99.90
46590;DHT22;32313;48.722;9.362;2023-09-19T10:56:08;23.80;99.90
46590;DHT22;32313;48.722;9.362;2023-09-19T10:58:40;23.10;99.90
46590;DHT22;32313;48.722;9.362;2023-09-19T11:01:11;23.40;99.90
46590;DHT22;32313;48.722;9.362;2023-09-19T11:03:44;24.30;99.90
46590;DHT22;32313;48.722;9.362;2023-09-19T11:06:19;25.20;99.90
46590;DHT22;32313;48.722;9.362;2023-09-19T11:09:04;25.60;99.90
46590;DHT22;32313;48.722;9.362;2023-09-19T11:14:29;26.00;99.90
46590;DHT22;32313;48.722;9.362;2023-09-19T11:30:39;25.20;99.70
46590;DHT22;32313;48.722;9.362;2023-09-19T11:49:26;25.70;95.30
46590;DHT22;32313;48.722;9.362;2023-09-19T11:52:00;25.80;95.80
46590;DHT22;32313;48.722;9.362;2023-09-19T11:54:27;26.10;94.80
46590;DHT22;32313;48.722;9.362;2023-09-19T11:56:58;25.70;93.80
46590;DHT22;32313;48.722;9.362;2023-09-19T11:59:26;25.90;94.90
46590;DHT22;32313;48.722;9.362;2023-09-19T12:02:05;26.40;94.50
46590;DHT22;32313;48.722;9.362;2023-09-19T12:04:38;26.20;93.70
46590;DHT22;32313;48.722;9.362;2023-09-19T12:07:08;26.10;93.70
46590;DHT22;32313;48.722;9.362;2023-09-19T12:09:45;26.30;93.60
46590;DHT22;32313;48.722;9.362;2023-09-19T12:12:39;26.10;92.80
46590;DHT22;32313;48.722;9.362;2023-09-19T12:15:07;26.00;93.90
46590;DHT22;32313;48.722;9.362;2023-09-19T12:20:02;26.20;93.40
46590;DHT22;32313;48.722;9.362;2023-09-19T12:22:45;26.70;93.90
46590;DHT22;32313;48.722;9.362;2023-09-19T12:25:12;27.00;92.50
46590;DHT22;32313;48.722;9.362;2023-09-19T12:27:46;27.20;92.70
46590;DHT22;32313;48.722;9.362;2023-09-19T12:30:18;27.00;90.80
46590;DHT22;32313;48.722;9.362;2023-09-19T12:32:46;26.80;92.60
46590;DHT22;32313;48.722;9.362;2023-09-19T12:35:33;26.80;92.30
46590;DHT22;32313;48.722;9.362;2023-09-19T12:38:01;27.10;92.90
46590;DHT22;32313;48.722;9.362;2023-09-19T12:40:29;27.70;92.20
46590;DHT22;32313;48.722;9.362;2023-09-19T12:42:59;28.30;91.60
46590;DHT22;32313;48.722;9.362;2023-09-19T12:45:25;28.40;90.70
46590;DHT22;32313;48.722;9.362;2023-09-19T12:51:02;27.60;90.40
46590;DHT22;32313;48.722;9.362;2023-09-19T12:53:42;27.70;89.90
46590;DHT22;32313;48.722;9.362;2023-09-19T12:56:13;27.90;88.80
46590;DHT22;32313;48.722;9.362;2023-09-19T12:58:58;27.80;88.20
46590;DHT22;32313;48.722;9.362;2023-09-19T13:01:29;27.90;85.90
46590;DHT22;32313;48.722;9.362;2023-09-19T13:06:40;28.40;85.90
46590;DHT22;32313;48.722;9.362;2023-09-19T13:09:10;27.90;84.80
46590;DHT22;32313;48.722;9.362;2023-09-19T13:11:37;28.10;86.00
46590;DHT22;32313;48.722;9.362;2023-09-19T13:14:31;28.20;87.10
46590;DHT22;32313;48.722;9.362;2023-09-19T13:16:59;28.30;85.60
46590;DHT22;32313;48.722;9.362;2023-09-19T13:19:42;28.30;85.30
46590;DHT22;32313;48.722;9.362;2023-09-19T13:25:07;28.20;84.20
46590;DHT22;32313;48.722;9.362;2023-09-19T13:27:34;28.20;83.10
46590;DHT22;32313;48.722;9.362;2023-09-19T13:29:59;27.80;83.40
46590;DHT22;32313;48.722;9.362;2023-09-19T13:32:26;27.00;82.00
46590;DHT22;32313;48.722;9.362;2023-09-19T13:34:51;26.50;87.50
46590;DHT22;32313;48.722;9.362;2023-09-19T13:37:17;26.40;87.90
46590;DHT22;32313;48.722;9.362;2023-09-19T13:39:44;26.50;85.80
46590;DHT22;32313;48.722;9.362;2023-09-19T13:42:13;26.70;86.80
46590;DHT22;32313;48.722;9.362;2023-09-19T13:44:39;27.10;87.20
46590;DHT22;32313;48.722;9.362;2023-09-19T13:47:06;27.40;85.20
46590;DHT22;32313;48.722;9.362;2023-09-19T13:49:38;27.60;83.70
46590;DHT22;32313;48.722;9.362;2023-09-19T13:52:04;27.20;83.90
46590;DHT22;32313;48.722;9.362;2023-09-19T13:54:30;27.20;84.30
46590;DHT22;32313;48.722;9.362;2023-09-19T13:56:56;26.70;84.60
46590;DHT22;32313;48.722;9.362;2023-09-19T13:59:22;26.40;84.30
46590;DHT22;32313;48.722;9.362;2023-09-19T14:01:52;26.00;86.50
46590;DHT22;32313;48.722;9.362;2023-09-19T14:04:19;26.60;84.20
46590;DHT22;32313;48.722;9.362;2023-09-19T14:06:52;26.90;83.80
46590;DHT22;32313;48.722;9.362;2023-09-19T14:09:18;27.30;83.90
46590;DHT22;32313;48.722;9.362;2023-09-19T14:11:45;27.40;83.50
46590;DHT22;32313;48.722;9.362;2023-09-19T14:14:13;27.10;83.10
46590;DHT22;32313;48.722;9.362;2023-09-19T14:16:39;27.20;82.60
46590;DHT22;32313;48.722;9.362;2023-09-19T14:19:07;27.30;81.70
46590;DHT22;32313;48.722;9.362;2023-09-19T14:21:33;27.50;83.20
46590;DHT22;32313;48.722;9.362;2023-09-19T14:23:59;27.40;79.20
46590;DHT22;32313;48.722;9.362;2023-09-19T14:26:25;27.50;80.40
46590;DHT22;32313;48.722;9.362;2023-09-19T14:28:51;27.60;80.40
46590;DHT22;32313;48.722;9.362;2023-09-19T14:31:16;27.30;79.00
46590;DHT22;32313;48.722;9.362;2023-09-19T14:33:42;27.30;78.90
46590;DHT22;32313;48.722;9.362;2023-09-19T14:36:10;26.80;78.40
46590;DHT22;32313;48.722;9.362;2023-09-19T14:38:37;26.40;80.60
46590;DHT22;32313;48.722;9.362;2023-09-19T14:41:04;26.10;81.70
46590;DHT22;32313;48.722;9.362;2023-09-19T14:43:30;26.00;82.90
46590;DHT22;32313;48.722;9.362;2023-09-19T14:46:02;26.20;82.00
46590;DHT22;32313;48.722;9.362;2023-09-19T14:48:28;26.20;80.00
46590;DHT22;32313;48.722;9.362;2023-09-19T14:50:54;26.00;81.70
46590;DHT22;32313;48.722;9.362;2023-09-19T14:53:21;25.70;81.60
46590;DHT22;32313;48.722;9.362;2023-09-19T14:55:49;25.60;82.10
46590;DHT22;32313;48.722;9.362;2023-09-19T14:58:17;26.00;80.70
46590;DHT22;32313;48.722;9.362;2023-09-19T15:00:43;26.40;80.40
46590;DHT22;32313;48.722;9.362;2023-09-19T15:03:11;26.80;80.10
46590;DHT22;32313;48.722;9.362;2023-09-19T15:05:37;27.10;78.30
46590;DHT22;32313;48.722;9.362;2023-09-19T15:08:02;27.10;78.50
46590;DHT22;32313;48.722;9.362;2023-09-19T15:10:28;26.90;78.00
46590;DHT22;32313;48.722;9.362;2023-09-19T15:12:55;26.60;79.30
46590;DHT22;32313;48.722;9.362;2023-09-19T15:15:20;26.40;78.90
46590;DHT22;32313;48.722;9.362;2023-09-19T15:17:46;26.30;79.40
46590;DHT22;32313;48.722;9.362;2023-09-19T15:20:12;26.50;80.20
46590;DHT22;32313;48.722;9.362;2023-09-19T15:22:39;26.20;77.90
46590;DHT22;32313;48.722;9.362;2023-09-19T15:25:05;25.80;81.40
46590;DHT22;32313;48.722;9.362;2023-09-19T15:27:32;25.50;81.20
46590;DHT22;32313;48.722;9.362;2023-09-19T15:29:59;25.50;81.00
46590;DHT22;32313;48.722;9.362;2023-09-19T15:32:26;25.50;81.40
46590;DHT22;32313;48.722;9.362;2023-09-19T15:34:52;25.60;81.60
46590;DHT22;32313;48.722;9.362;2023-09-19T15:37:17;25.60;80.40
46590;DHT22;32313;48.722;9.362;2023-09-19T15:39:44;25.60;80.50
46590;DHT22;32313;48.722;9.362;2023-09-19T15:42:11;25.60;81.90
46590;DHT22;32313;48.722;9.362;2023-09-19T15:44:37;25.50;81.90
46590;DHT22;32313;48.722;9.362;2023-09-19T15:47:03;25.10;82.10
46590;DHT22;32313;48.722;9.362;2023-09-19T15:49:29;24.90;81.90
46590;DHT22;32313;48.722;9.362;2023-09-19T15:51:55;25.10;82.60
46590;DHT22;32313;48.722;9.362;2023-09-19T15:54:21;25.20;81.70
46590;DHT22;32313;48.722;9.362;2023-09-19T15:56:47;25.10;82.00
46590;DHT22;32313;48.722;9.362;2023-09-19T15:59:14;25.00;81.70
46590;DHT22;32313;48.722;9.362;2023-09-19T16:01:43;24.70;82.20
46590;DHT22;32313;48.722;9.362;2023-09-19T16:04:09;24.30;82.50
46590;DHT22;32313;48.722;9.362;2023-09-19T16:06:36;24.20;83.00
46590;DHT22;32313;48.722;9.362;2023-09-19T16:09:04;24.00;84.00
46590;DHT22;32313;48.722;9.362;2023-09-19T16:11:33;23.40;85.50
46590;DHT22;32313;48.722;9.362;2023-09-19T16:13:58;23.00;87.30
46590;DHT22;32313;48.722;9.362;2023-09-19T16:16:26;22.70;89.10
46590;DHT22;32313;48.722;9.362;2023-09-19T16:18:58;22.40;89.20
46590;DHT22;32313;48.722;9.362;2023-09-19T16:21:27;22.30;90.30
46590;DHT22;32313;48.722;9.362;2023-09-19T16:23:54;22.10;90.70
46590;DHT22;32313;48.722;9.362;2023-09-19T16:26:21;21.90;91.10
46590;DHT22;32313;48.722;9.362;2023-09-19T16:28:49;21.80;91.40
46590;DHT22;32313;48.722;9.362;2023-09-19T16:31:15;21.70;91.70
46590;DHT22;32313;48.722;9.362;2023-09-19T16:33:44;21.60;91.90
46590;DHT22;32313;48.722;9.362;2023-09-19T16:36:12;21.50;91.90
46590;DHT22;32313;48.722;9.362;2023-09-19T16:38:38;21.40;92.50
46590;DHT22;32313;48.722;9.362;2023-09-19T16:41:05;21.40;92.10
46590;DHT22;32313;48.722;9.362;2023-09-19T16:43:32;21.40;92.20